Time;durP1;ratioP1;P1;durP2;ratioP2;P2;SDS_P1;SDS_P2;PMS_P1;PMS_P2;Temp;Humidity;BMP_temperature;BMP_pressure;BME280_temperature;BME280_humidity;BME280_pressure;Samples;Min_cycle;Max_cycle;Signal;HPM_P1;HPM_P2
2022/04/04 00:01:09;;;;;;;;;;;;;;;6.35;50.31;100940.06;6134311;23;6866;-75
2022/04/04 00:03:35;;;;;;;;;;;;;;;6.31;50.26;100943.16;6135427;23;7124;-75
2022/04/04 00:06:00;;;;;;;;;;;;;;;6.26;49.81;100934.31;6133883;23;6823;-75
2022/04/04 00:08:27;;;;;;;;;;;;;;;6.24;50.63;100930.78;6157581;23;6975;-75
2022/04/04 00:10:53;;;;;;;;;;;;;;;6.19;49.92;100935.53;6132358;23;6942;-75
2022/04/04 00:13:19;;;;;;;;;;;;;;;6.17;50.29;100929.41;6131679;23;6960;-75
2022/04/04 00:15:45;;;;;;;;;;;;;;;6.15;50.29;100930.94;6109478;23;6942;-75
2022/04/04 00:18:12;;;;;;;;;;;;;;;6.11;50.34;100924.75;6109133;23;6948;-75
2022/04/04 00:20:41;;;;;;;;;;;;;;;6.10;50.55;100922.09;6108995;23;7944;-75
2022/04/04 00:23:12;;;;;;;;;;;;;;;6.09;50.57;100925.44;6131605;23;7291;-75
2022/04/04 00:25:44;;;;;;;;;;;;;;;6.06;50.69;100917.53;6135948;23;6783;-75
2022/04/04 00:28:11;;;;;;;;;;;;;;;6.04;50.56;100912.34;6111604;23;6870;-75
2022/04/04 00:30:38;;;;;;;;;;;;;;;6.04;50.88;100917.44;6135669;23;6934;-75
2022/04/04 00:33:05;;;;;;;;;;;;;;;6.03;51.08;100920.72;6134159;23;6779;-75
2022/04/04 00:35:31;;;;;;;;;;;;;;;6.02;51.29;100911.34;6135070;23;6945;-75
2022/04/04 00:38:02;;;;;;;;;;;;;;;6.01;50.67;100913.75;6135267;23;6847;-75
2022/04/04 00:40:28;;;;;;;;;;;;;;;6.02;50.70;100918.97;6134758;23;7026;-75
2022/04/04 00:42:54;;;;;;;;;;;;;;;5.98;50.62;100915.28;6134810;23;6951;-75
2022/04/04 00:45:20;;;;;;;;;;;;;;;6.00;50.81;100914.53;6133426;23;7015;-75
2022/04/04 00:47:46;;;;;;;;;;;;;;;5.99;50.87;100906.00;6134082;23;6946;-75
2022/04/04 00:50:12;;;;;;;;;;;;;;;5.97;50.97;100912.63;6135007;23;7432;-75
2022/04/04 00:52:38;;;;;;;;;;;;;;;5.95;50.91;100907.41;6134763;23;6943;-75
2022/04/04 00:55:08;;;;;;;;;;;;;;;5.91;50.66;100904.53;6135276;23;6858;-75
2022/04/04 00:57:36;;;;;;;;;;;;;;;5.88;51.08;100896.69;6133756;23;6775;-75
2022/04/04 01:00:05;;;;;;;;;;;;;;;5.84;51.52;100887.91;6133968;23;6994;-75
2022/04/04 01:02:30;;;;;;;;;;;;;;;5.84;51.04;100895.56;6133137;23;6779;-75
2022/04/04 01:04:56;;;;;;;;;;;;;;;5.80;51.25;100886.81;6134579;23;6790;-75
2022/04/04 01:07:22;;;;;;;;;;;;;;;5.79;51.67;100885.03;6132507;23;6832;-75
2022/04/04 01:09:48;;;;;;;;;;;;;;;5.78;51.22;100887.44;6133781;23;6821;-75
2022/04/04 01:12:14;;;;;;;;;;;;;;;5.75;51.37;100883.03;6107922;23;6916;-75
2022/04/04 01:14:47;;;;;;;;;;;;;;;5.72;51.25;100867.53;6084468;23;7061;-75
2022/04/04 01:17:19;;;;;;;;;;;;;;;5.71;51.57;100870.84;6135089;23;6961;-75
2022/04/04 01:19:45;;;;;;;;;;;;;;;5.67;51.38;100858.69;6134379;23;7013;-75
2022/04/04 01:22:14;;;;;;;;;;;;;;;5.65;51.40;100861.09;6134145;23;6775;-75
2022/04/04 01:24:41;;;;;;;;;;;;;;;5.64;51.41;100859.34;6132444;23;7203;-75
2022/04/04 01:27:11;;;;;;;;;;;;;;;5.63;51.95;100852.47;6133478;23;6783;-75
2022/04/04 01:29:38;;;;;;;;;;;;;;;5.64;52.20;100848.25;6134884;23;6955;-75
2022/04/04 01:32:06;;;;;;;;;;;;;;;5.63;51.85;100843.94;6134032;23;6946;-75
2022/04/04 01:34:32;;;;;;;;;;;;;;;5.64;51.99;100853.34;6158793;23;6779;-76
2022/04/04 01:36:58;;;;;;;;;;;;;;;5.63;52.24;100843.94;6109926;23;6763;-75
2022/04/04 01:39:24;;;;;;;;;;;;;;;5.63;51.69;100837.22;6135859;23;6766;-75
2022/04/04 01:41:50;;;;;;;;;;;;;;;5.64;51.74;100833.00;6133744;23;6931;-75
2022/04/04 01:44:17;;;;;;;;;;;;;;;5.64;52.00;100828.81;6133432;23;7038;-75
2022/04/04 01:46:44;;;;;;;;;;;;;;;5.65;52.19;100833.13;6110334;23;6942;-75
2022/04/04 01:49:10;;;;;;;;;;;;;;;5.65;51.93;100833.13;6159832;23;7123;-75
2022/04/04 01:51:38;;;;;;;;;;;;;;;5.66;51.89;100828.94;6110205;23;6941;-75
2022/04/04 01:54:05;;;;;;;;;;;;;;;5.64;51.79;100821.19;6110946;23;7115;-75
2022/04/04 01:56:32;;;;;;;;;;;;;;;5.65;52.06;100824.59;6111683;23;6948;-75
2022/04/04 01:58:59;;;;;;;;;;;;;;;5.66;52.37;100823.84;6135454;23;6775;-75
2022/04/04 02:01:26;;;;;;;;;;;;;;;5.66;52.18;100817.09;6110239;23;6900;-75
2022/04/04 02:03:56;;;;;;;;;;;;;;;5.65;52.23;100810.25;6136901;23;6963;-75
2022/04/04 02:06:23;;;;;;;;;;;;;;;5.66;52.25;100809.47;6136089;23;6786;-75
2022/04/04 02:08:50;;;;;;;;;;;;;;;5.68;52.01;100812.13;6113238;23;6788;-75
2022/04/04 02:11:19;;;;;;;;;;;;;;;5.68;52.24;100804.50;6113625;23;7040;-75
2022/04/04 02:13:46;;;;;;;;;;;;;;;5.67;52.11;100792.56;6139279;23;6957;-75
2022/04/04 02:16:12;;;;;;;;;;;;;;;5.70;52.21;100797.88;6136847;23;6783;-75
2022/04/04 02:18:38;;;;;;;;;;;;;;;5.72;52.57;100792.91;6089616;23;7155;-75
2022/04/04 02:21:06;;;;;;;;;;;;;;;5.74;52.35;100793.91;6139209;23;6850;-75
2022/04/04 02:23:32;;;;;;;;;;;;;;;5.75;52.79;100783.84;6113142;23;6940;-75
2022/04/04 02:25:59;;;;;;;;;;;;;;;5.79;52.51;100783.28;6115614;23;8430;-75
2022/04/04 02:28:27;;;;;;;;;;;;;;;5.81;52.19;100780.84;6141239;23;7058;-75
2022/04/04 02:30:54;;;;;;;;;;;;;;;5.83;52.42;100775.09;6140222;23;6914;-75
2022/04/04 02:33:21;;;;;;;;;;;;;;;5.86;52.52;100769.34;6139713;23;6782;-75
2022/04/04 02:35:50;;;;;;;;;;;;;;;5.88;52.40;100765.25;6141696;23;6953;-75
2022/04/04 02:38:18;;;;;;;;;;;;;;;5.92;52.21;100763.81;6141450;23;6956;-75
2022/04/04 02:40:44;;;;;;;;;;;;;;;5.92;52.59;100764.72;6141049;23;6983;-75
2022/04/04 02:43:10;;;;;;;;;;;;;;;5.92;52.36;100759.63;6141183;23;6795;-76
2022/04/04 02:45:36;;;;;;;;;;;;;;;5.94;52.00;100749.53;6116797;23;6957;-75
2022/04/04 02:48:06;;;;;;;;;;;;;;;5.97;52.37;100752.31;6117490;23;6989;-75
2022/04/04 02:50:32;;;;;;;;;;;;;;;5.95;52.65;100743.69;6144380;23;6986;-75
2022/04/04 02:52:58;;;;;;;;;;;;;;;5.96;52.02;100738.69;6143365;23;6924;-75
2022/04/04 02:58:07;;;;;;;;;;;;;;;5.98;52.32;100729.50;6134005;23;6790;-76
2022/04/04 03:00:33;;;;;;;;;;;;;;;6.01;52.33;100718.69;6118343;23;7100;-76
2022/04/04 03:02:59;;;;;;;;;;;;;;;6.04;52.19;100715.50;6114468;23;6829;-75
2022/04/04 03:05:25;;;;;;;;;;;;;;;6.06;52.47;100707.22;6115392;23;6818;-75
2022/04/04 03:07:52;;;;;;;;;;;;;;;6.08;52.01;100710.75;6137510;23;6787;-75
2022/04/04 03:10:19;;;;;;;;;;;;;;;6.12;52.41;100699.13;6110958;23;6815;-75
2022/04/04 03:12:48;;;;;;;;;;;;;;;6.14;51.84;100697.56;6111161;23;7824;-75
2022/04/04 03:15:21;;;;;;;;;;;;;;;6.17;51.84;100697.78;6112514;23;7118;-75
2022/04/04 03:17:55;;;;;;;;;;;;;;;6.21;51.79;100689.59;6108472;23;6973;-75
2022/04/04 03:20:24;;;;;;;;;;;;;;;6.25;51.79;100691.56;6109342;23;6858;-75
2022/04/04 03:22:53;;;;;;;;;;;;;;;6.29;51.66;100689.25;6111839;23;6782;-75
2022/04/04 03:25:19;;;;;;;;;;;;;;;6.30;51.97;100675.75;6111790;23;7847;-75
2022/04/04 03:27:47;;;;;;;;;;;;;;;6.33;51.94;100675.94;6088197;23;7007;-75
2022/04/04 03:30:26;;;;;;;;;;;;;;;6.35;51.30;100669.28;6134468;23;7142;-76
2022/04/04 03:32:57;;;;;;;;;;;;;;;6.36;51.61;100661.78;6110309;23;6802;-75
2022/04/04 03:35:28;;;;;;;;;;;;;;;6.39;51.49;100661.09;6090913;23;6974;-75
2022/04/04 03:37:57;;;;;;;;;;;;;;;6.43;51.25;100663.06;6115309;23;6790;-75
2022/04/04 03:40:23;;;;;;;;;;;;;;;6.47;51.63;100654.88;6114521;23;7067;-75
2022/04/04 03:42:52;;;;;;;;;;;;;;;6.51;51.45;100651.75;6112466;23;6968;-75
2022/04/04 03:45:19;;;;;;;;;;;;;;;6.56;51.10;100653.72;6113919;23;6945;-75
2022/04/04 03:47:46;;;;;;;;;;;;;;;6.61;51.24;100637.09;6113960;23;7780;-75
2022/04/04 03:50:13;;;;;;;;;;;;;;;6.64;51.02;100637.31;6111854;23;7277;-75
2022/04/04 03:52:45;;;;;;;;;;;;;;;6.66;50.70;100634.09;6088487;23;7062;-75
2022/04/04 03:55:12;;;;;;;;;;;;;;;6.70;50.64;100630.09;6087449;23;6775;-75
2022/04/04 03:57:38;;;;;;;;;;;;;;;6.72;50.34;100625.97;6112103;23;6971;-75
2022/04/04 04:00:05;;;;;;;;;;;;;;;6.76;50.74;100619.41;6112321;23;6959;-75
2022/04/04 04:02:33;;;;;;;;;;;;;;;6.79;50.36;100624.72;6110734;23;6787;-75
2022/04/04 04:04:59;;;;;;;;;;;;;;;6.80;50.22;100616.28;6088461;23;7017;-75
2022/04/04 04:07:25;;;;;;;;;;;;;;;6.83;50.49;100620.69;6112766;23;7313;-75
2022/04/04 04:09:54;;;;;;;;;;;;;;;6.85;50.18;100611.50;6112873;23;6775;-75
2022/04/04 04:12:20;;;;;;;;;;;;;;;6.88;49.64;100604.94;6112692;23;6857;-75
2022/04/04 04:14:47;;;;;;;;;;;;;;;6.91;49.94;100599.16;6111334;23;6775;-75
2022/04/04 04:17:15;;;;;;;;;;;;;;;6.92;50.02;100594.19;6087495;23;7181;-75
2022/04/04 04:22:25;;;;;;;;;;;;;;;6.94;49.83;100587.50;6110991;23;6857;-75
2022/04/04 04:24:51;;;;;;;;;;;;;;;6.96;49.35;100579.97;6113452;23;7214;-76
2022/04/04 04:27:17;;;;;;;;;;;;;;;6.97;49.28;100578.28;6113100;23;6918;-75
2022/04/04 04:29:43;;;;;;;;;;;;;;;6.98;49.64;100580.06;6112173;23;6778;-75
2022/04/04 04:32:09;;;;;;;;;;;;;;;6.98;49.03;100572.41;6112685;23;6783;-75
2022/04/04 04:34:35;;;;;;;;;;;;;;;6.98;49.07;100562.22;6113103;23;6771;-75
2022/04/04 04:37:01;;;;;;;;;;;;;;;6.98;49.23;100570.75;6113275;23;6973;-75
2022/04/04 04:39:27;;;;;;;;;;;;;;;7.00;49.67;100560.66;6113528;23;6779;-75
2022/04/04 04:41:55;;;;;;;;;;;;;;;7.00;49.18;100556.44;6064130;23;7108;-75
2022/04/04 04:44:20;;;;;;;;;;;;;;;7.03;49.31;100553.22;6090018;23;8615;-75
2022/04/04 04:46:46;;;;;;;;;;;;;;;7.04;48.45;100547.34;6112733;23;6929;-75
2022/04/04 04:49:12;;;;;;;;;;;;;;;7.05;49.05;100547.44;6115103;23;6937;-75
2022/04/04 04:51:37;;;;;;;;;;;;;;;7.05;49.03;100544.91;6136824;23;7144;-76
2022/04/04 04:54:03;;;;;;;;;;;;;;;7.06;49.09;100540.66;6113290;23;6762;-75
2022/04/04 04:56:31;;;;;;;;;;;;;;;7.06;48.69;100539.00;6112514;23;7096;-75
2022/04/04 04:58:57;;;;;;;;;;;;;;;7.06;48.47;100528.81;6114737;23;7382;-75
2022/04/04 05:01:23;;;;;;;;;;;;;;;7.05;48.13;100529.59;6111340;23;6762;-75
2022/04/04 05:03:51;;;;;;;;;;;;;;;7.07;47.99;100533.13;6109471;23;6759;-75
2022/04/04 05:06:17;;;;;;;;;;;;;;;7.05;48.58;100515.97;6111805;23;6994;-75
2022/04/04 05:08:43;;;;;;;;;;;;;;;7.06;48.39;100525.38;6111841;23;6779;-75
2022/04/04 05:11:08;;;;;;;;;;;;;;;7.04;48.16;100526.94;6111623;23;8004;-75
2022/04/04 05:13:34;;;;;;;;;;;;;;;7.03;48.77;100520.97;6089832;23;7095;-75
2022/04/04 05:16:00;;;;;;;;;;;;;;;7.03;48.87;100517.53;6086733;23;7205;-75
2022/04/04 05:18:26;;;;;;;;;;;;;;;7.03;48.46;100520.97;6112696;23;6766;-75
2022/04/04 05:20:52;;;;;;;;;;;;;;;7.04;48.71;100512.53;6112036;23;7005;-75
2022/04/04 05:23:17;;;;;;;;;;;;;;;7.06;48.72;100510.09;6087627;23;7432;-75
2022/04/04 05:25:43;;;;;;;;;;;;;;;7.07;48.65;100504.19;6111236;23;6771;-75
2022/04/04 05:28:10;;;;;;;;;;;;;;;7.08;48.69;100506.84;6112756;23;6935;-75
2022/04/04 05:30:37;;;;;;;;;;;;;;;7.09;47.98;100503.53;6112878;23;6953;-75
2022/04/04 05:33:02;;;;;;;;;;;;;;;7.12;48.76;100504.50;6112187;23;7237;-75
2022/04/04 05:35:28;;;;;;;;;;;;;;;7.12;49.12;100499.38;6113739;23;6782;-75
2022/04/04 05:37:56;;;;;;;;;;;;;;;7.14;48.45;100492.72;6112861;23;6774;-75
2022/04/04 05:40:25;;;;;;;;;;;;;;;7.16;49.09;100497.13;6110228;23;7178;-75
2022/04/04 05:42:52;;;;;;;;;;;;;;;7.18;48.34;100487.03;6110647;23;7116;-75
2022/04/04 05:45:18;;;;;;;;;;;;;;;7.20;48.52;100486.38;6111192;23;7198;-75
2022/04/04 05:47:45;;;;;;;;;;;;;;;7.22;48.80;100491.53;6111018;23;6920;-75
2022/04/04 05:50:10;;;;;;;;;;;;;;;7.25;48.73;100491.75;6134956;23;7083;-75
2022/04/04 05:52:36;;;;;;;;;;;;;;;7.26;48.29;100483.31;6135603;23;7284;-75
2022/04/04 05:55:04;;;;;;;;;;;;;;;7.28;48.35;100479.19;6104668;23;6970;-75
2022/04/04 05:57:35;;;;;;;;;;;;;;;7.29;48.99;100460.56;6106141;23;6790;-75
2022/04/04 06:00:00;;;;;;;;;;;;;;;7.32;48.47;100460.72;6086036;23;6958;-75
2022/04/04 06:02:27;;;;;;;;;;;;;;;7.34;48.34;100469.38;6112335;23;7062;-75
2022/04/04 06:04:53;;;;;;;;;;;;;;;7.35;48.74;100455.84;6113708;23;6787;-75
2022/04/04 06:07:19;;;;;;;;;;;;;;;7.39;48.45;100450.91;6113310;23;6786;-75
2022/04/04 06:09:45;;;;;;;;;;;;;;;7.40;48.25;100452.69;6111346;23;6870;-75
2022/04/04 06:12:11;;;;;;;;;;;;;;;7.41;48.38;100452.78;6111614;23;7226;-75
2022/04/04 06:14:37;;;;;;;;;;;;;;;7.44;48.40;100452.09;6112305;23;6930;-76
2022/04/04 06:17:05;;;;;;;;;;;;;;;7.44;48.39;100447.00;6112663;23;6949;-75
2022/04/04 06:19:34;;;;;;;;;;;;;;;7.47;48.82;100436.97;6113645;23;6783;-75
2022/04/04 06:22:03;;;;;;;;;;;;;;;7.49;48.69;100437.94;6114336;23;6786;-75
2022/04/04 06:24:31;;;;;;;;;;;;;;;7.57;48.22;100430.75;6109339;23;6964;-75
2022/04/04 06:27:00;;;;;;;;;;;;;;;7.63;48.63;100423.47;6091295;23;6779;-76
2022/04/04 06:29:27;;;;;;;;;;;;;;;7.71;48.33;100412.06;6091186;23;6779;-75
2022/04/04 06:31:53;;;;;;;;;;;;;;;7.80;47.98;100406.63;6112183;23;6990;-75
2022/04/04 06:34:20;;;;;;;;;;;;;;;7.90;48.66;100408.06;6114412;23;6782;-75
2022/04/04 06:36:47;;;;;;;;;;;;;;;8.02;48.61;100403.66;6112221;23;6787;-75
2022/04/04 06:39:14;;;;;;;;;;;;;;;8.14;48.25;100395.84;6114222;23;6786;-75
2022/04/04 06:41:40;;;;;;;;;;;;;;;8.27;47.10;100386.31;6111978;23;6790;-75
2022/04/04 06:44:08;;;;;;;;;;;;;;;8.34;47.52;100386.75;6114838;23;7124;-75
2022/04/04 06:46:36;;;;;;;;;;;;;;;8.40;46.85;100380.25;6113245;23;6782;-75
2022/04/04 06:49:07;;;;;;;;;;;;;;;8.45;47.75;100366.94;6112408;23;7379;-75
2022/04/04 06:51:34;;;;;;;;;;;;;;;8.52;46.45;100364.75;6112733;23;6960;-75
2022/04/04 06:54:04;;;;;;;;;;;;;;;8.59;46.50;100361.72;6112829;23;7396;-75
2022/04/04 06:56:34;;;;;;;;;;;;;;;8.67;46.62;100357.94;6115077;23;6790;-75
2022/04/04 06:59:01;;;;;;;;;;;;;;;8.78;46.41;100355.06;6116603;23;7198;-75
2022/04/04 07:01:27;;;;;;;;;;;;;;;8.85;46.46;100349.50;6086345;23;8335;-75
2022/04/04 07:03:54;;;;;;;;;;;;;;;8.97;45.96;100345.06;6114376;23;7124;-75
2022/04/04 07:06:20;;;;;;;;;;;;;;;9.09;46.50;100343.97;6112877;23;7434;-75
2022/04/04 07:08:46;;;;;;;;;;;;;;;9.21;45.52;100324.16;6116228;23;7018;-75
2022/04/04 07:11:13;;;;;;;;;;;;;;;9.35;45.24;100332.53;6137518;23;6857;-76
2022/04/04 07:13:44;;;;;;;;;;;;;;;9.49;45.40;100327.25;6114913;23;6786;-75
2022/04/04 07:16:10;;;;;;;;;;;;;;;9.62;44.46;100331.31;6136490;23;7193;-76
2022/04/04 07:18:35;;;;;;;;;;;;;;;9.72;44.45;100320.75;6086441;23;6790;-75
2022/04/04 07:21:01;;;;;;;;;;;;;;;9.78;44.17;100310.81;6115523;23;6774;-75
2022/04/04 07:23:27;;;;;;;;;;;;;;;9.81;43.53;100304.97;6112350;23;6774;-75
2022/04/04 07:25:53;;;;;;;;;;;;;;;9.82;43.86;100309.28;6137540;23;6862;-75
2022/04/04 07:28:20;;;;;;;;;;;;;;;9.82;43.22;100310.16;6136785;23;6987;-75
2022/04/04 07:30:45;;;;;;;;;;;;;;;9.85;43.57;100315.44;6112415;23;6787;-75
2022/04/04 07:33:15;;;;;;;;;;;;;;;9.88;43.16;100294.22;6111570;23;6771;-75
2022/04/04 07:35:42;;;;;;;;;;;;;;;9.90;43.01;100295.19;6112932;23;6806;-75
2022/04/04 07:38:08;;;;;;;;;;;;;;;9.93;42.84;100304.69;6088040;23;6791;-75
2022/04/04 07:40:34;;;;;;;;;;;;;;;9.96;43.51;100295.47;6111688;23;6801;-76
2022/04/04 07:43:00;;;;;;;;;;;;;;;10.02;42.21;100297.44;6112033;23;6818;-76
2022/04/04 07:45:27;;;;;;;;;;;;;;;10.06;42.73;100288.22;6088975;23;6914;-76
2022/04/04 07:47:55;;;;;;;;;;;;;;;10.09;42.60;100281.59;6090350;23;6782;-76
2022/04/04 07:50:21;;;;;;;;;;;;;;;10.14;42.20;100286.94;6112609;23;7024;-75
2022/04/04 07:52:47;;;;;;;;;;;;;;;10.17;42.47;100276.81;6087304;23;6905;-75
2022/04/04 07:55:13;;;;;;;;;;;;;;;10.21;42.59;100280.41;6113761;23;6790;-75
2022/04/04 07:57:40;;;;;;;;;;;;;;;10.28;42.27;100274.78;6111954;23;6942;-76
2022/04/04 08:00:17;;;;;;;;;;;;;;;10.40;41.84;100274.47;6111935;23;6783;-75
2022/04/04 08:02:45;;;;;;;;;;;;;;;10.52;41.66;100256.25;6114051;23;6958;-76
2022/04/04 08:05:11;;;;;;;;;;;;;;;10.62;41.36;100255.88;6111148;23;7091;-76
2022/04/04 08:07:37;;;;;;;;;;;;;;;10.70;41.13;100249.41;6114517;23;7023;-75
2022/04/04 08:10:04;;;;;;;;;;;;;;;10.77;40.40;100249.69;6113086;23;6975;-75
2022/04/04 08:12:30;;;;;;;;;;;;;;;10.83;40.87;100239.72;6112161;23;7006;-75
2022/04/04 08:14:56;;;;;;;;;;;;;;;10.89;40.69;100239.97;6112705;23;7389;-75
2022/04/04 08:17:23;;;;;;;;;;;;;;;10.99;41.24;100233.56;6112135;23;6878;-75
2022/04/04 08:19:50;;;;;;;;;;;;;;;11.15;40.87;100224.84;6112502;23;6846;-76
2022/04/04 08:22:18;;;;;;;;;;;;;;;11.31;40.52;100212.66;6112290;23;6931;-76
2022/04/04 08:24:44;;;;;;;;;;;;;;;11.43;40.25;100227.69;6133669;23;7329;-75
2022/04/04 08:27:10;;;;;;;;;;;;;;;11.52;39.74;100221.25;6110673;23;6858;-75
2022/04/04 08:29:37;;;;;;;;;;;;;;;11.63;40.04;100206.28;6113331;23;6774;-75
2022/04/04 08:32:05;;;;;;;;;;;;;;;11.69;39.23;100197.97;6114412;23;6865;-75
2022/04/04 08:34:30;;;;;;;;;;;;;;;11.75;39.35;100199.91;6112871;23;6803;-75
2022/04/04 08:36:56;;;;;;;;;;;;;;;11.81;39.56;100188.19;6111964;23;7151;-75
2022/04/04 08:39:22;;;;;;;;;;;;;;;11.87;38.84;100179.84;6087322;23;6770;-75
2022/04/04 08:41:48;;;;;;;;;;;;;;;11.96;38.99;100184.44;6086310;23;6954;-75
2022/04/04 08:44:15;;;;;;;;;;;;;;;12.04;38.49;100179.66;6088138;23;6869;-75
2022/04/04 08:46:43;;;;;;;;;;;;;;;12.12;38.39;100179.94;6110373;23;6779;-74
2022/04/04 08:49:08;;;;;;;;;;;;;;;12.15;37.95;100164.63;6113240;23;6873;-75
2022/04/04 08:51:36;;;;;;;;;;;;;;;12.21;38.51;100162.31;6113704;23;6964;-75
2022/04/04 08:54:03;;;;;;;;;;;;;;;12.30;38.19;100161.75;6114249;23;6786;-75
2022/04/04 08:56:28;;;;;;;;;;;;;;;12.39;37.93;100148.41;6088056;23;8680;-75
2022/04/04 08:58:56;;;;;;;;;;;;;;;12.49;38.08;100145.34;6115537;23;6953;-75
2022/04/04 09:01:24;;;;;;;;;;;;;;;12.57;38.51;100143.91;6112479;23;7062;-75
2022/04/04 09:04:16;;;;;;;;;;;;;;;12.69;37.52;100137.47;6110628;23;6790;-75
2022/04/04 09:06:52;;;;;;;;;;;;;;;12.76;38.14;100135.13;6100474;23;6881;-75
2022/04/04 09:09:26;;;;;;;;;;;;;;;12.87;37.68;100116.63;6089105;23;7007;-75
2022/04/04 09:12:05;;;;;;;;;;;;;;;12.94;36.98;100130.56;6113480;23;6783;-75
2022/04/04 09:14:58;;;;;;;;;;;;;;;13.00;38.04;100123.97;6112849;23;7038;-75
2022/04/04 09:17:30;;;;;;;;;;;;;;;13.11;37.12;100116.56;6114267;23;6782;-75
2022/04/04 09:19:57;;;;;;;;;;;;;;;13.17;38.03;100111.66;6087460;23;7130;-75
2022/04/04 09:22:24;;;;;;;;;;;;;;;13.23;37.34;100108.41;6110839;23;6988;-75
2022/04/04 09:24:59;;;;;;;;;;;;;;;13.31;37.23;100103.47;6112256;23;6779;-75
2022/04/04 09:27:34;;;;;;;;;;;;;;;13.37;37.26;100100.22;6113586;23;6778;-75
2022/04/04 09:30:07;;;;;;;;;;;;;;;13.40;37.60;100108.06;6115000;23;6786;-75
2022/04/04 09:32:38;;;;;;;;;;;;;;;13.42;37.74;100091.84;6113654;23;6855;-75
2022/04/04 09:35:14;;;;;;;;;;;;;;;13.46;37.60;100092.81;6114337;23;6783;-75
2022/04/04 09:37:45;;;;;;;;;;;;;;;13.46;37.94;100093.72;6136984;23;7186;-75
2022/04/04 09:40:24;;;;;;;;;;;;;;;13.39;36.92;100096.88;6114140;23;6881;-75
2022/04/04 09:42:50;;;;;;;;;;;;;;;13.31;37.38;100077.75;6137581;23;6936;-75
2022/04/04 09:45:16;;;;;;;;;;;;;;;13.23;37.76;100074.06;6113406;23;7179;-75
2022/04/04 09:48:03;;;;;;;;;;;;;;;13.17;37.68;100078.19;6089125;23;7207;-75
2022/04/04 09:50:46;;;;;;;;;;;;;;;13.12;37.84;100079.72;6113811;23;6986;-76
2022/04/04 09:53:28;;;;;;;;;;;;;;;13.12;38.13;100081.44;6134790;23;6770;-75
2022/04/04 09:55:57;;;;;;;;;;;;;;;13.12;39.04;100066.88;6114660;23;6982;-75
2022/04/04 09:58:25;;;;;;;;;;;;;;;13.06;38.16;100067.53;6113471;23;6884;-75
2022/04/04 10:00:51;;;;;;;;;;;;;;;12.85;38.29;100070.31;6115629;23;6790;-75
2022/04/04 10:03:19;;;;;;;;;;;;;;;12.62;38.89;100067.81;6116133;23;6791;-75
2022/04/04 10:06:08;;;;;;;;;;;;;;;12.45;39.56;100051.81;6115093;23;6845;-75
2022/04/04 10:08:38;;;;;;;;;;;;;;;12.32;39.41;100054.78;6113626;23;6982;-75
2022/04/04 10:11:08;;;;;;;;;;;;;;;12.25;39.56;100053.66;6113118;23;6782;-75
2022/04/04 10:13:35;;;;;;;;;;;;;;;12.28;39.63;100034.94;6113928;23;7829;-75
2022/04/04 10:16:02;;;;;;;;;;;;;;;12.32;39.13;100044.50;6112726;23;7872;-75
2022/04/04 10:18:28;;;;;;;;;;;;;;;12.37;39.51;100037.81;6113339;23;7186;-75
2022/04/04 10:20:56;;;;;;;;;;;;;;;12.40;39.02;100027.63;6090086;23;6978;-75
2022/04/04 10:23:25;;;;;;;;;;;;;;;12.40;39.12;100037.06;6113975;23;6966;-75
2022/04/04 10:25:52;;;;;;;;;;;;;;;12.35;38.42;100032.63;6090519;23;7552;-74
2022/04/04 10:28:30;;;;;;;;;;;;;;;12.34;39.38;100012.03;6113485;23;6775;-75
2022/04/04 10:30:59;;;;;;;;;;;;;;;12.32;39.14;100029.09;6111635;23;7106;-75
2022/04/04 10:33:26;;;;;;;;;;;;;;;12.32;39.29;100029.94;6115445;23;6782;-75
2022/04/04 10:36:11;;;;;;;;;;;;;;;12.36;39.53;100021.53;6112470;23;6874;-75
2022/04/04 10:38:59;;;;;;;;;;;;;;;12.43;39.33;100019.16;6113881;23;6806;-75
2022/04/04 10:41:30;;;;;;;;;;;;;;;12.49;38.88;100009.09;6112973;23;7045;-75
2022/04/04 10:43:57;;;;;;;;;;;;;;;12.46;38.82;100016.72;6114048;23;6997;-75
2022/04/04 10:46:25;;;;;;;;;;;;;;;12.40;39.64;100025.06;6113522;23;7856;-75
2022/04/04 10:49:10;;;;;;;;;;;;;;;12.33;39.49;100003.41;6114959;23;6874;-74
2022/04/04 10:51:37;;;;;;;;;;;;;;;12.21;39.92;100032.13;6114212;23;6903;-74
2022/04/04 10:54:10;;;;;;;;;;;;;;;12.12;40.10;100018.09;6114240;23;7792;-74
2022/04/04 10:56:45;;;;;;;;;;;;;;;12.00;40.47;100019.38;6112688;23;6785;-74
2022/04/04 10:59:19;;;;;;;;;;;;;;;11.90;40.92;100007.03;6113800;23;7114;-74
2022/04/04 11:01:56;;;;;;;;;;;;;;;11.77;41.55;100008.28;6112275;23;7059;-74
2022/04/04 11:04:31;;;;;;;;;;;;;;;11.64;42.20;100020.66;6112738;23;6787;-75
2022/04/04 11:10:06;;;;;;;;;;;;;;;11.22;43.43;99997.66;6112754;23;7346;-75
2022/04/04 11:13:00;;;;;;;;;;;;;;;10.97;44.60;100000.13;6113963;23;8393;-74
2022/04/04 11:15:48;;;;;;;;;;;;;;;10.68;44.67;99998.97;6114290;23;6783;-74
2022/04/04 11:18:14;;;;;;;;;;;;;;;10.54;45.88;100006.09;6088953;23;6953;-74
2022/04/04 11:20:59;;;;;;;;;;;;;;;10.42;45.49;99975.69;6113608;23;6771;-74
2022/04/04 11:23:34;;;;;;;;;;;;;;;10.29;46.57;99997.31;6113833;23;6775;-74
2022/04/04 11:26:04;;;;;;;;;;;;;;;10.16;47.20;100005.28;6114269;23;6771;-74
2022/04/04 11:28:32;;;;;;;;;;;;;;;10.08;47.51;99990.47;6114834;23;6948;-74
2022/04/04 11:31:10;;;;;;;;;;;;;;;9.99;48.72;100008.88;6114487;23;7046;-74
2022/04/04 11:33:54;;;;;;;;;;;;;;;9.91;49.20;100001.66;6111953;23;6991;-74
2022/04/04 11:36:32;;;;;;;;;;;;;;;9.75;48.99;99985.59;6111449;23;7042;-74
2022/04/04 11:39:03;;;;;;;;;;;;;;;9.61;50.63;99986.69;6111298;23;7156;-74
2022/04/04 11:41:36;;;;;;;;;;;;;;;9.54;50.56;99999.19;6111679;23;6944;-75
2022/04/04 11:44:03;;;;;;;;;;;;;;;9.45;50.92;99986.84;6114711;23;7027;-74
2022/04/04 11:46:28;;;;;;;;;;;;;;;9.42;51.92;99983.28;6113152;23;6954;-74
2022/04/04 11:48:55;;;;;;;;;;;;;;;9.40;51.53;99992.56;6087641;23;7328;-74
2022/04/04 11:51:34;;;;;;;;;;;;;;;9.35;52.18;99979.56;6113562;23;6778;-74
2022/04/04 11:54:09;;;;;;;;;;;;;;;9.27;51.99;99952.75;6113519;23;7993;-74
2022/04/04 11:56:35;;;;;;;;;;;;;;;9.18;52.40;99971.13;6112421;23;7050;-74
2022/04/04 11:59:04;;;;;;;;;;;;;;;9.10;52.48;99968.19;6090350;23;7081;-75
2022/04/04 12:01:34;;;;;;;;;;;;;;;9.05;52.98;99958.56;6110618;23;6946;-75
2022/04/04 12:04:01;;;;;;;;;;;;;;;9.02;53.73;99960.16;6088430;23;6958;-75
2022/04/04 12:06:29;;;;;;;;;;;;;;;9.02;53.83;99975.50;6112728;23;6995;-75
2022/04/04 12:08:57;;;;;;;;;;;;;;;9.02;53.88;99960.16;6088421;23;8241;-75
2022/04/04 12:11:30;;;;;;;;;;;;;;;9.03;54.48;99951.69;6111103;23;6998;-75
2022/04/04 12:13:56;;;;;;;;;;;;;;;9.06;53.89;99947.50;6114372;23;7808;-75
2022/04/04 12:16:24;;;;;;;;;;;;;;;9.07;54.00;99936.47;6113811;23;7076;-75
2022/04/04 12:18:54;;;;;;;;;;;;;;;9.10;53.88;99947.72;6112314;23;6953;-75
2022/04/04 12:21:21;;;;;;;;;;;;;;;9.14;54.49;99936.84;6112178;23;6775;-75
2022/04/04 12:26:32;;;;;;;;;;;;;;;9.24;53.77;99943.25;6110305;23;7330;-75
2022/04/04 12:28:58;;;;;;;;;;;;;;;9.25;53.72;99950.13;6114501;23;6838;-75
2022/04/04 12:31:27;;;;;;;;;;;;;;;9.27;55.11;99930.63;6087175;23;6925;-75
2022/04/04 12:34:06;;;;;;;;;;;;;;;9.31;54.92;99929.97;6090424;23;6994;-75
2022/04/04 12:36:41;;;;;;;;;;;;;;;9.38;53.93;99922.56;6112096;23;7037;-75
2022/04/04 12:39:18;;;;;;;;;;;;;;;9.41;55.22;99910.75;6113087;23;7134;-75
2022/04/04 12:41:53;;;;;;;;;;;;;;;9.44;54.63;99918.59;6088035;23;7239;-75
2022/04/04 12:44:28;;;;;;;;;;;;;;;9.48;53.88;99909.38;6090780;23;7596;-75
2022/04/04 12:47:11;;;;;;;;;;;;;;;9.49;54.17;99906.00;6111645;23;6790;-75
2022/04/04 12:49:38;;;;;;;;;;;;;;;9.48;54.35;99914.50;6087228;23;6943;-75
2022/04/04 12:52:06;;;;;;;;;;;;;;;9.52;55.00;99884.81;6112751;23;6863;-75
2022/04/04 12:54:36;;;;;;;;;;;;;;;9.55;54.20;99907.97;6112521;23;6850;-75
2022/04/04 12:57:12;;;;;;;;;;;;;;;9.54;54.39;99889.16;6112927;23;7126;-75
2022/04/04 12:59:54;;;;;;;;;;;;;;;9.55;54.33;99890.91;6137258;23;7122;-75
2022/04/04 13:02:28;;;;;;;;;;;;;;;9.57;53.90;99881.66;6111573;23;6855;-75
2022/04/04 13:05:12;;;;;;;;;;;;;;;9.58;54.86;99902.97;6137689;23;6783;-75
2022/04/04 13:07:50;;;;;;;;;;;;;;;9.58;54.87;99875.72;6135587;23;7194;-75
2022/04/04 13:10:15;;;;;;;;;;;;;;;9.58;54.79;99880.84;6136211;23;6778;-75
2022/04/04 13:12:41;;;;;;;;;;;;;;;9.61;54.02;99861.31;6086830;23;6977;-75
2022/04/04 13:15:08;;;;;;;;;;;;;;;9.61;55.05;99872.44;6113188;23;6767;-75